Weimar, TX (78962)

2:46 PM CST on December 27, 2014 (GMT -0600)
TRANQUILITY OAKS | Change Station
CLOSE
Current Station
Personal Weather Station
Location: Weimar, TX
Elevation: 341 ft
Nearby Weather Stations

Elev 341 ft 29.71 °N, 96.71 °W | Updated 54 seconds ago

Overcast
Overcast
46.9 °F
Feels Like 47 °F
N
3.0
Wind Variable Wind from NNW
Gusts 13.0 mph

Today
High -- | Low -- °F
--% Chance of Precip.
Yesterday
High -- | Low -- °F
Precip. -- in
7:20 AM 5:35 PM
Waxing Crescent, 40% visible
Pressure 30.08 in
Visibility 10.0 miles
Clouds Overcast 2300 ft
Windchill 47 °F
Dew Point 46 °F
Humidity 95%
Rainfall 0.23 in
Snow Depth Not available.
UV 1 out of 12
Pollen 5.20 out of 12
Air Quality Not available.
Flu Activity Not available.
METAR K3T5 272030Z AUTO 35013G18KT 10SM OVC023 09/06 A3008 RMK AO2 T00920063

More Conditions Fewer Conditions

Pressure 30.08 in
Visibility 10.0 miles
Clouds Overcast 2300 ft
Windchill 47 °F
Dew Point 46 °F
Humidity 95%
Rainfall 0.23 in
Snow Depth Not available.
UV 1 out of 12
Pollen 5.20 out of 12
Air Quality Not available.
Flu Activity Not available.
METAR K3T5 272030Z AUTO 35013G18KT 10SM OVC023 09/06 A3008 RMK AO2 T00920063

More Conditions Fewer Conditions

10-Day Weather Forecast

Almanac

Astronomy

Dec. 27, 2014 Rise Set
Actual Time
Civil Twilight
Nautical Twilight
Astronomical Twilight
Moon
Length of Visible Light
Length of Day
Tomorrow will be .
, % of the Moon is Illuminated

Today's Extremes

State Highs State Lows

Community

WunderPhotos

Upload Photos

1,781,053 photos uploaded!

WunderBlogs® & News

Nearby

Air Quality

  Air Quality AQ Index Pollutant
Not available.

Snow Depth

Station Depth Elevation

Earthquake Activity

City Distance Mag. Time & Date
Minimum magnitude displayed is 2.5.

Coastal Water Temperatures

Place Temperature

Nearby Weather Stations